createdAt,value
2022-09-06T00:01:00.472Z,97.80
2022-09-06T00:03:28.175Z,97.80
2022-09-06T00:05:55.129Z,97.70
2022-09-06T00:08:21.946Z,97.80
2022-09-06T00:11:00.940Z,97.40
2022-09-06T00:13:28.529Z,97.20
2022-09-06T00:16:04.592Z,96.90
2022-09-06T00:18:31.637Z,97.00
2022-09-06T00:20:58.548Z,97.10
2022-09-06T00:23:25.502Z,96.90
2022-09-06T00:25:52.344Z,96.80
2022-09-06T00:28:21.618Z,96.70
2022-09-06T00:30:48.537Z,96.70
2022-09-06T00:33:15.360Z,96.50
2022-09-06T00:35:42.215Z,96.50
2022-09-06T00:38:08.970Z,96.50
2022-09-06T00:40:38.982Z,96.40
2022-09-06T00:43:05.849Z,96.40
2022-09-06T00:45:36.465Z,96.50
2022-09-06T00:48:05.076Z,96.50
2022-09-06T00:50:32.867Z,96.70
2022-09-06T00:52:59.908Z,96.40
2022-09-06T00:55:26.863Z,96.90
2022-09-06T00:57:54.108Z,96.50
2022-09-06T01:00:21.263Z,96.80
2022-09-06T01:02:50.578Z,96.50
2022-09-06T01:05:17.827Z,96.50
2022-09-06T01:07:59.623Z,96.30
2022-09-06T01:10:40.066Z,96.30
2022-09-06T01:13:34.486Z,96.90
2022-09-06T01:16:18.502Z,96.50
2022-09-06T01:19:03.217Z,96.50
2022-09-06T01:21:32.918Z,96.50
2022-09-06T01:24:18.358Z,96.60
2022-09-06T01:27:12.706Z,96.50
2022-09-06T01:29:57.244Z,96.60
2022-09-06T01:32:32.684Z,96.30
2022-09-06T01:35:08.110Z,96.20
2022-09-06T01:37:35.000Z,96.20
2022-09-06T01:40:07.115Z,96.10
2022-09-06T01:42:36.697Z,96.10
2022-09-06T01:45:11.099Z,96.20
2022-09-06T01:48:15.893Z,96.30
2022-09-06T01:51:10.456Z,96.00
2022-09-06T01:53:53.571Z,95.90
2022-09-06T01:56:28.533Z,95.70
2022-09-06T01:59:20.432Z,95.80
2022-09-06T02:02:03.632Z,95.80
2022-09-06T02:04:40.161Z,95.80
2022-09-06T02:07:26.017Z,95.70
2022-09-06T02:10:21.049Z,95.40
2022-09-06T02:12:53.396Z,95.30
2022-09-06T02:15:25.815Z,95.40
2022-09-06T02:18:12.985Z,95.30
2022-09-06T02:20:48.306Z,95.60
2022-09-06T02:23:16.484Z,95.30
2022-09-06T02:25:47.380Z,95.40
2022-09-06T02:28:14.244Z,95.40
2022-09-06T02:30:48.918Z,95.20
2022-09-06T02:33:22.622Z,95.40
2022-09-06T02:35:52.339Z,95.30
2022-09-06T02:38:22.618Z,95.60
2022-09-06T02:40:54.371Z,95.60
2022-09-06T02:43:22.842Z,96.00
2022-09-06T02:45:50.058Z,95.40
2022-09-06T02:48:17.382Z,95.30
2022-09-06T02:50:44.150Z,95.40
2022-09-06T02:53:13.492Z,95.20
2022-09-06T02:55:41.558Z,95.30
2022-09-06T02:58:10.303Z,95.30
2022-09-06T03:00:37.462Z,95.80
2022-09-06T03:03:04.710Z,96.10
2022-09-06T03:05:34.989Z,96.40
2022-09-06T03:08:02.074Z,96.40
2022-09-06T03:10:28.917Z,96.90
2022-09-06T03:12:55.808Z,97.20
2022-09-06T03:15:22.654Z,98.20
2022-09-06T03:17:49.931Z,98.20
2022-09-06T03:20:16.795Z,97.30
2022-09-06T03:22:43.612Z,97.70
2022-09-06T03:25:11.404Z,97.80
2022-09-06T03:27:40.817Z,97.50
2022-09-06T03:30:08.206Z,97.40
2022-09-06T03:32:35.212Z,97.60
2022-09-06T03:35:05.188Z,98.20
2022-09-06T03:37:32.038Z,97.90
2022-09-06T03:39:59.857Z,98.40
2022-09-06T03:42:27.502Z,98.20
2022-09-06T03:44:54.652Z,97.90
2022-09-06T03:47:21.388Z,98.00
2022-09-06T03:49:48.322Z,98.10
2022-09-06T03:52:15.462Z,98.20
2022-09-06T03:54:42.291Z,98.00
2022-09-06T03:57:09.577Z,98.10
2022-09-06T03:59:39.592Z,98.20
2022-09-06T04:02:06.837Z,98.00
2022-09-06T04:04:33.710Z,98.10
2022-09-06T04:07:00.622Z,97.80
2022-09-06T04:09:27.525Z,97.90
2022-09-06T04:11:54.438Z,98.10
2022-09-06T04:14:21.191Z,98.10
2022-09-06T04:16:48.243Z,98.10
2022-09-06T04:19:15.142Z,98.40
2022-09-06T04:21:45.029Z,98.10
2022-09-06T04:24:11.812Z,98.10
2022-09-06T04:26:39.163Z,98.80
2022-09-06T04:29:08.217Z,98.50
2022-09-06T04:31:35.129Z,98.40
2022-09-06T04:34:01.962Z,98.20
2022-09-06T04:36:29.842Z,98.30
2022-09-06T04:38:57.054Z,98.60
2022-09-06T04:41:23.881Z,98.80
2022-09-06T04:43:50.787Z,98.80
2022-09-06T04:46:22.259Z,99.00
2022-09-06T04:48:49.868Z,98.50
2022-09-06T04:51:16.716Z,98.70
2022-09-06T04:53:43.759Z,98.30
2022-09-06T04:56:19.115Z,98.40
2022-09-06T04:58:47.331Z,98.60
2022-09-06T05:01:14.593Z,98.90
2022-09-06T05:03:41.859Z,98.80
2022-09-06T05:06:11.623Z,98.80
2022-09-06T05:08:41.866Z,98.80
2022-09-06T05:11:11.288Z,98.60
2022-09-06T05:13:38.633Z,98.60
2022-09-06T05:16:07.581Z,98.50
2022-09-06T05:18:40.217Z,98.30
2022-09-06T05:21:07.651Z,98.70
2022-09-06T05:23:37.263Z,98.90
2022-09-06T05:26:04.571Z,98.60
2022-09-06T05:28:31.393Z,98.60
2022-09-06T05:31:10.627Z,98.60
2022-09-06T05:33:38.036Z,98.20
2022-09-06T05:36:06.085Z,98.90
2022-09-06T05:38:36.423Z,98.80
2022-09-06T05:41:03.203Z,98.50
2022-09-06T05:43:30.194Z,98.40
2022-09-06T05:45:57.288Z,98.50
2022-09-06T05:48:34.671Z,98.10
2022-09-06T05:51:06.698Z,98.10
2022-09-06T05:53:44.322Z,98.20
2022-09-06T05:56:12.982Z,98.00
2022-09-06T05:58:40.259Z,98.00
2022-09-06T06:01:17.826Z,98.30
2022-09-06T06:03:52.551Z,97.40
2022-09-06T06:06:20.675Z,97.30
2022-09-06T06:08:47.830Z,97.10
2022-09-06T06:11:15.330Z,97.30
2022-09-06T06:13:43.284Z,97.20
2022-09-06T06:16:17.703Z,96.80
2022-09-06T06:18:48.766Z,96.70
2022-09-06T06:21:21.625Z,96.40
2022-09-06T06:23:59.845Z,96.70
2022-09-06T06:26:28.736Z,96.60
2022-09-06T06:28:57.784Z,96.50
2022-09-06T06:31:25.016Z,97.20
2022-09-06T06:33:51.858Z,96.90
2022-09-06T06:36:24.358Z,96.50
2022-09-06T06:38:56.030Z,96.60
2022-09-06T06:41:25.304Z,96.30
2022-09-06T06:43:53.913Z,96.10
2022-09-06T06:46:22.414Z,96.20
2022-09-06T06:48:54.532Z,95.90
2022-09-06T06:51:28.273Z,95.70
2022-09-06T06:53:58.623Z,95.30
2022-09-06T06:56:28.466Z,95.20
2022-09-06T06:58:57.694Z,95.20
2022-09-06T07:01:28.601Z,94.70
2022-09-06T07:03:55.850Z,94.10
2022-09-06T07:09:10.620Z,94.30
2022-09-06T07:11:38.309Z,93.90
2022-09-06T07:14:05.074Z,94.00
2022-09-06T07:16:32.193Z,93.90
2022-09-06T07:19:01.872Z,93.40
2022-09-06T07:24:13.251Z,93.50
2022-09-06T07:26:40.891Z,93.80
2022-09-06T07:29:08.572Z,93.20
2022-09-06T07:34:25.754Z,92.90
2022-09-06T07:36:54.237Z,93.50
2022-09-06T07:39:21.288Z,92.90
2022-09-06T07:41:54.258Z,92.60
2022-09-06T07:44:21.269Z,93.00
2022-09-06T07:46:48.257Z,92.90
2022-09-06T07:49:15.129Z,92.50
2022-09-06T07:51:42.458Z,92.40
2022-09-06T07:56:56.374Z,92.50
2022-09-06T07:59:23.264Z,92.20
2022-09-06T08:01:50.470Z,92.20
2022-09-06T08:04:17.483Z,91.60
2022-09-06T08:09:36.107Z,92.50
2022-09-06T08:12:06.967Z,91.90
2022-09-06T08:14:34.685Z,91.50
2022-09-06T08:17:02.398Z,91.70
2022-09-06T08:19:29.516Z,92.30
2022-09-06T08:21:57.090Z,91.90
2022-09-06T08:24:23.872Z,92.00
2022-09-06T08:26:50.882Z,92.30
2022-09-06T08:29:19.752Z,92.20
2022-09-06T08:31:48.234Z,91.80
2022-09-06T08:34:18.182Z,91.20
2022-09-06T08:36:45.957Z,91.70
2022-09-06T08:39:13.008Z,91.60
2022-09-06T08:42:01.325Z,91.00
2022-09-06T08:47:26.052Z,91.10
2022-09-06T08:49:55.593Z,90.90
2022-09-06T08:52:34.698Z,91.50
2022-09-06T08:55:35.463Z,90.60
2022-09-06T08:58:41.855Z,90.70
2022-09-06T09:01:19.820Z,90.90
2022-09-06T09:03:49.874Z,90.90
2022-09-06T09:06:16.642Z,90.70
2022-09-06T09:09:16.561Z,90.90
2022-09-06T09:11:47.138Z,90.20
2022-09-06T09:14:35.387Z,91.00
2022-09-06T09:17:08.323Z,90.80
2022-09-06T09:19:37.823Z,89.80
2022-09-06T09:22:06.847Z,90.60
2022-09-06T09:24:35.219Z,90.00
2022-09-06T09:27:11.288Z,90.60
2022-09-06T09:32:45.230Z,90.10
2022-09-06T09:35:19.718Z,88.90
2022-09-06T09:37:49.283Z,87.80
2022-09-06T09:40:25.854Z,89.40
2022-09-06T09:42:56.867Z,89.70
2022-09-06T09:45:31.560Z,87.60
2022-09-06T09:48:17.942Z,88.50
2022-09-06T09:50:44.737Z,87.70
2022-09-06T09:53:14.193Z,89.40
2022-09-06T09:55:44.270Z,88.60
2022-09-06T09:58:44.355Z,90.00
2022-09-06T10:01:24.490Z,89.60
2022-09-06T10:09:42.190Z,87.70
2022-09-06T10:12:16.783Z,88.80
2022-09-06T10:14:46.410Z,88.40
2022-09-06T10:17:30.713Z,87.40
2022-09-06T10:20:01.573Z,87.70
2022-09-06T10:22:38.119Z,87.50
2022-09-06T10:25:14.427Z,87.80
2022-09-06T10:28:11.723Z,87.20
2022-09-06T10:31:06.661Z,84.80
2022-09-06T10:34:02.107Z,83.70
2022-09-06T10:36:47.676Z,84.90
2022-09-06T10:39:29.368Z,83.80
2022-09-06T10:42:15.267Z,84.90
2022-09-06T10:45:00.522Z,85.00
2022-09-06T10:47:54.457Z,82.60
2022-09-06T10:50:25.837Z,83.80
2022-09-06T10:52:54.036Z,82.40
2022-09-06T10:55:22.166Z,82.80
2022-09-06T11:00:47.336Z,80.50
2022-09-06T11:06:20.355Z,81.10
2022-09-06T11:09:02.270Z,82.40
2022-09-06T11:11:53.406Z,82.80
2022-09-06T11:14:23.811Z,83.20
2022-09-06T11:16:59.389Z,83.40
2022-09-06T11:19:40.932Z,82.90
2022-09-06T11:22:10.451Z,82.10
2022-09-06T11:25:18.230Z,83.40
2022-09-06T11:27:53.935Z,83.90
2022-09-06T11:30:25.494Z,82.00
2022-09-06T11:33:05.130Z,82.60
2022-09-06T11:35:34.662Z,82.00
2022-09-06T11:38:16.875Z,82.90
2022-09-06T11:40:47.421Z,82.60
2022-09-06T11:43:18.072Z,82.90
2022-09-06T11:45:56.665Z,83.50
2022-09-06T11:48:23.481Z,84.00
2022-09-06T11:50:59.497Z,82.90
2022-09-06T11:53:29.855Z,82.80
2022-09-06T11:55:59.758Z,83.70
2022-09-06T11:58:35.891Z,83.20
2022-09-06T12:01:13.091Z,83.00
2022-09-06T12:06:39.605Z,82.40
2022-09-06T12:09:30.550Z,82.90
2022-09-06T12:11:59.008Z,82.40
2022-09-06T12:14:46.960Z,81.50
2022-09-06T12:17:14.070Z,81.90
2022-09-06T12:19:52.755Z,81.20
2022-09-06T12:22:32.754Z,80.60
2022-09-06T12:25:22.346Z,79.20
2022-09-06T12:28:01.842Z,80.40
2022-09-06T12:30:37.521Z,78.90
2022-09-06T12:33:13.956Z,76.80
2022-09-06T12:35:56.734Z,76.40
2022-09-06T12:38:25.469Z,76.60
2022-09-06T12:40:58.270Z,75.30
2022-09-06T12:43:26.440Z,73.60
2022-09-06T12:45:53.484Z,70.00
2022-09-06T12:48:27.710Z,67.20
2022-09-06T12:51:06.264Z,63.40
2022-09-06T12:53:34.767Z,60.30
2022-09-06T12:56:05.622Z,59.20
2022-09-06T12:58:33.301Z,56.90
2022-09-06T13:01:14.188Z,56.20
2022-09-06T13:03:56.042Z,54.30
2022-09-06T13:06:27.322Z,53.10
2022-09-06T13:08:57.335Z,51.20
2022-09-06T13:11:51.032Z,51.20
2022-09-06T13:14:23.537Z,49.80
2022-09-06T13:16:52.677Z,49.50
2022-09-06T13:19:37.623Z,48.10
2022-09-06T13:22:07.623Z,48.30
2022-09-06T13:24:34.412Z,49.20
2022-09-06T13:27:24.495Z,48.50
2022-09-06T13:30:10.594Z,48.90
2022-09-06T13:32:46.527Z,47.00
2022-09-06T13:35:26.970Z,47.30
2022-09-06T13:37:53.824Z,46.60
2022-09-06T13:40:53.888Z,47.90
2022-09-06T13:43:25.556Z,46.50
2022-09-06T13:46:09.601Z,45.30
2022-09-06T13:48:37.214Z,45.10
2022-09-06T13:51:06.740Z,46.20
2022-09-06T13:53:34.684Z,45.50
2022-09-06T13:56:01.666Z,46.30
2022-09-06T13:58:34.402Z,45.00
2022-09-06T14:01:01.822Z,45.80
2022-09-06T14:03:31.435Z,43.60
2022-09-06T14:06:00.244Z,43.60
2022-09-06T14:08:49.295Z,43.70
2022-09-06T14:11:18.375Z,44.40
2022-09-06T14:13:48.215Z,44.50
2022-09-06T14:16:15.299Z,44.80
2022-09-06T14:18:42.238Z,44.10
2022-09-06T14:21:08.977Z,44.60
2022-09-06T14:23:35.921Z,44.80
2022-09-06T14:26:03.571Z,44.50
2022-09-06T14:28:36.650Z,45.10
2022-09-06T14:31:14.767Z,47.50
2022-09-06T14:33:41.642Z,47.40
2022-09-06T14:36:14.787Z,48.20
2022-09-06T14:38:43.594Z,47.00
2022-09-06T14:41:11.071Z,46.20
2022-09-06T14:43:37.971Z,45.60
2022-09-06T14:46:10.719Z,45.40
2022-09-06T14:48:41.620Z,46.50
2022-09-06T14:51:10.503Z,48.20
2022-09-06T14:53:44.364Z,50.30
2022-09-06T14:56:12.117Z,51.30
2022-09-06T14:58:40.024Z,52.90
2022-09-06T15:01:12.978Z,53.50
2022-09-06T15:03:46.835Z,53.80
2022-09-06T15:06:14.191Z,54.10
2022-09-06T15:08:41.073Z,55.50
2022-09-06T15:11:08.357Z,54.50
2022-09-06T15:13:37.280Z,52.60
2022-09-06T15:16:05.329Z,53.00
2022-09-06T15:18:33.152Z,53.20
2022-09-06T15:21:09.743Z,52.40
2022-09-06T15:23:36.850Z,53.20
2022-09-06T15:26:06.199Z,53.50
2022-09-06T15:28:36.486Z,54.00
2022-09-06T15:31:04.398Z,54.10
2022-09-06T15:33:32.584Z,53.20
2022-09-06T15:36:05.902Z,53.40
2022-09-06T15:38:38.107Z,54.20
2022-09-06T15:41:10.590Z,54.40
2022-09-06T15:43:41.791Z,56.10
2022-09-06T15:46:09.862Z,57.10
2022-09-06T15:48:45.126Z,57.80
2022-09-06T15:51:17.478Z,59.10
2022-09-06T15:53:44.713Z,59.00
2022-09-06T15:56:14.774Z,60.30
2022-09-06T15:58:41.729Z,60.30
2022-09-06T16:01:17.484Z,60.60
2022-09-06T16:03:49.284Z,61.70
2022-09-06T16:06:27.657Z,62.00
2022-09-06T16:09:08.910Z,61.60
2022-09-06T16:11:37.064Z,63.30
2022-09-06T16:14:05.450Z,61.90
2022-09-06T16:16:32.904Z,62.40
2022-09-06T16:19:00.201Z,62.90
2022-09-06T16:21:32.491Z,62.70
2022-09-06T16:24:05.109Z,65.00
2022-09-06T16:26:35.002Z,63.70
2022-09-06T16:29:03.466Z,64.10
2022-09-06T16:31:30.512Z,64.50
2022-09-06T16:33:58.057Z,65.00
2022-09-06T16:36:25.930Z,65.60
2022-09-06T16:38:52.951Z,66.70
2022-09-06T16:41:23.593Z,66.20
2022-09-06T16:43:50.638Z,67.10
2022-09-06T16:46:18.127Z,68.30
2022-09-06T16:48:53.263Z,70.10
2022-09-06T16:51:22.065Z,69.20
2022-09-06T16:53:49.749Z,69.50
2022-09-06T16:56:20.064Z,68.50
2022-09-06T16:59:01.309Z,69.30
2022-09-06T17:01:30.453Z,69.90
2022-09-06T17:04:00.223Z,70.70
2022-09-06T17:06:27.080Z,70.30
2022-09-06T17:08:58.405Z,71.90
2022-09-06T17:11:26.500Z,71.60
2022-09-06T17:13:54.050Z,71.90
2022-09-06T17:16:43.256Z,72.50
2022-09-06T17:19:13.856Z,73.00
2022-09-06T17:21:40.882Z,73.40
2022-09-06T17:24:08.351Z,72.80
2022-09-06T17:26:37.283Z,73.60
2022-09-06T17:29:04.967Z,75.00
2022-09-06T17:31:32.015Z,75.50
2022-09-06T17:34:02.327Z,76.20
2022-09-06T17:36:31.776Z,75.90
2022-09-06T17:39:18.186Z,76.30
2022-09-06T17:41:49.967Z,77.60
2022-09-06T17:44:19.209Z,78.10
2022-09-06T17:47:08.954Z,79.00
2022-09-06T17:49:36.222Z,80.00
2022-09-06T17:52:03.458Z,80.90
2022-09-06T17:54:32.035Z,83.00
2022-09-06T17:56:58.900Z,83.30
2022-09-06T17:59:25.792Z,86.20
2022-09-06T18:01:52.989Z,86.80
2022-09-06T18:04:19.994Z,84.90
2022-09-06T18:06:47.536Z,86.20
2022-09-06T18:09:17.563Z,86.10
2022-09-06T18:11:48.307Z,86.40
2022-09-06T18:14:18.405Z,88.20
2022-09-06T18:16:49.538Z,88.60
2022-09-06T18:19:17.913Z,88.90
2022-09-06T18:21:47.225Z,89.10
2022-09-06T18:24:15.160Z,89.60
2022-09-06T18:26:43.251Z,90.20
2022-09-06T18:29:14.942Z,90.20
2022-09-06T18:31:42.782Z,91.00
2022-09-06T18:34:10.071Z,91.10
2022-09-06T18:36:38.702Z,91.50
2022-09-06T18:39:06.129Z,91.00
2022-09-06T18:41:53.174Z,91.00
2022-09-06T18:44:20.237Z,91.70
2022-09-06T18:46:47.534Z,91.40
2022-09-06T18:49:15.544Z,91.70
2022-09-06T18:51:43.578Z,92.20
2022-09-06T18:54:11.187Z,91.50
2022-09-06T18:56:38.722Z,91.60
2022-09-06T18:59:06.473Z,91.70
2022-09-06T19:01:34.870Z,91.20
2022-09-06T19:04:02.769Z,91.10
2022-09-06T19:06:34.701Z,90.70
2022-09-06T19:09:05.214Z,90.60
2022-09-06T19:11:32.631Z,90.60
2022-09-06T19:14:02.124Z,90.60
2022-09-06T19:16:31.570Z,90.30
2022-09-06T19:19:07.171Z,90.30
2022-09-06T19:21:37.962Z,90.30
2022-09-06T19:24:10.236Z,89.90
2022-09-06T19:26:39.543Z,89.60
2022-09-06T19:29:10.965Z,89.70
2022-09-06T19:31:38.494Z,90.60
2022-09-06T19:34:05.833Z,90.50
2022-09-06T19:36:33.006Z,90.80
2022-09-06T19:39:07.152Z,90.30
2022-09-06T19:41:37.084Z,90.50
2022-09-06T19:44:08.988Z,90.70
2022-09-06T19:46:45.428Z,91.80
2022-09-06T19:49:14.584Z,90.60
2022-09-06T19:51:43.210Z,90.50
2022-09-06T19:54:09.991Z,90.30
2022-09-06T19:56:37.034Z,90.50
2022-09-06T19:59:06.150Z,90.40
2022-09-06T20:01:35.633Z,90.60
2022-09-06T20:04:05.258Z,90.80
2022-09-06T20:06:32.144Z,90.50
2022-09-06T20:09:00.666Z,90.60
2022-09-06T20:11:30.229Z,90.70
2022-09-06T20:14:00.213Z,90.60
2022-09-06T20:16:28.458Z,90.60
2022-09-06T20:18:55.446Z,90.60
2022-09-06T20:21:26.800Z,90.40
2022-09-06T20:24:10.139Z,90.70
2022-09-06T20:26:39.994Z,91.20
2022-09-06T20:29:08.058Z,91.20
2022-09-06T20:31:37.893Z,91.10
2022-09-06T20:34:08.044Z,91.40
2022-09-06T20:36:37.476Z,91.20
2022-09-06T20:39:05.628Z,91.20
2022-09-06T20:41:34.159Z,90.90
2022-09-06T20:44:05.707Z,91.00
2022-09-06T20:46:37.585Z,91.20
2022-09-06T20:49:06.872Z,91.50
2022-09-06T20:51:39.968Z,91.70
2022-09-06T20:54:07.938Z,92.30
2022-09-06T20:56:42.598Z,92.30
2022-09-06T20:59:15.004Z,92.30
2022-09-06T21:01:47.512Z,92.50
2022-09-06T21:04:21.934Z,92.90
2022-09-06T21:06:56.419Z,93.00
2022-09-06T21:09:27.853Z,93.10
2022-09-06T21:12:01.042Z,93.20
2022-09-06T21:14:28.735Z,93.40
2022-09-06T21:17:00.409Z,94.40
2022-09-06T21:19:33.946Z,94.70
2022-09-06T21:22:04.935Z,94.20
2022-09-06T21:24:34.379Z,94.40
2022-09-06T21:27:08.232Z,94.60
2022-09-06T21:29:38.797Z,94.30
2022-09-06T21:32:11.800Z,94.60
2022-09-06T21:34:42.623Z,93.90
2022-09-06T21:37:11.172Z,93.80
2022-09-06T21:39:41.672Z,93.80
2022-09-06T21:42:09.578Z,93.90
2022-09-06T21:44:40.484Z,93.60
2022-09-06T21:47:14.791Z,93.90
2022-09-06T21:49:47.032Z,94.10
2022-09-06T21:52:17.893Z,94.10
2022-09-06T21:54:48.865Z,94.00
2022-09-06T21:57:21.280Z,93.70
2022-09-06T22:00:02.905Z,94.00
2022-09-06T22:02:32.407Z,94.10
2022-09-06T22:05:06.660Z,94.20
2022-09-06T22:07:37.885Z,94.10
2022-09-06T22:10:09.137Z,94.90
2022-09-06T22:12:38.076Z,95.10
2022-09-06T22:15:15.562Z,94.70
2022-09-06T22:17:53.252Z,95.20
2022-09-06T22:20:24.104Z,94.80
2022-09-06T22:22:52.109Z,95.10
2022-09-06T22:25:25.873Z,94.90
2022-09-06T22:28:01.585Z,95.30
2022-09-06T22:30:33.636Z,95.40
2022-09-06T22:33:03.413Z,96.20
2022-09-06T22:35:43.526Z,96.00
2022-09-06T22:38:14.769Z,97.40
2022-09-06T22:40:42.224Z,96.40
2022-09-06T22:43:10.694Z,96.10
2022-09-06T22:45:39.583Z,97.50
2022-09-06T22:48:11.238Z,96.80
2022-09-06T22:50:43.627Z,97.60
2022-09-06T22:53:12.772Z,97.90
2022-09-06T22:55:45.798Z,98.40
2022-09-06T22:58:26.437Z,97.50
2022-09-06T23:01:11.176Z,97.20
2022-09-06T23:03:39.970Z,97.00
2022-09-06T23:06:07.489Z,97.60
2022-09-06T23:08:39.794Z,97.50
2022-09-06T23:11:17.156Z,97.20
2022-09-06T23:13:59.239Z,97.20
2022-09-06T23:16:41.261Z,96.90
2022-09-06T23:19:13.531Z,97.20
2022-09-06T23:21:40.411Z,97.30
2022-09-06T23:24:07.276Z,98.00
2022-09-06T23:26:34.199Z,98.20
2022-09-06T23:29:01.550Z,99.30
2022-09-06T23:31:31.563Z,98.90
2022-09-06T23:34:00.418Z,99.30
2022-09-06T23:36:27.998Z,99.10
2022-09-06T23:38:55.837Z,99.60
2022-09-06T23:41:23.594Z,99.90
2022-09-06T23:43:50.634Z,99.90
2022-09-06T23:46:17.654Z,99.90
2022-09-06T23:48:44.562Z,99.90
2022-09-06T23:51:12.676Z,99.90
2022-09-06T23:53:39.651Z,99.90
2022-09-06T23:56:07.051Z,99.90
2022-09-06T23:58:34.840Z,99.90
